Time;durP1;ratioP1;P1;durP2;ratioP2;P2;SDS_P1;SDS_P2;PMS_P1;PMS_P2;Temp;Humidity;BMP_temperature;BMP_pressure;BME280_temperature;BME280_humidity;BME280_pressure;Samples;Min_cycle;Max_cycle;Signal;HPM_P1;HPM_P2
2023/09/05 00:00:16;;;;;;;1999.90;999.90;;;13.80;99.90;;;;;;5053787;28;20166;-70
2023/09/05 00:02:44;;;;;;;1999.90;999.90;;;13.80;99.90;;;;;;5050848;28;20049;-70
2023/09/05 00:05:11;;;;;;;1999.90;999.90;;;13.80;99.90;;;;;;5062132;28;20071;-70
2023/09/05 00:07:38;;;;;;;1999.90;999.90;;;13.80;99.90;;;;;;5064337;28;20098;-71
2023/09/05 00:10:12;;;;;;;1999.90;999.90;;;13.80;99.90;;;;;;5054753;28;20059;-71
2023/09/05 00:12:40;;;;;;;1999.90;999.90;;;13.80;99.90;;;;;;5053275;28;20033;-70
2023/09/05 00:15:11;;;;;;;1999.90;999.90;;;13.80;99.90;;;;;;5059971;28;20049;-71
2023/09/05 00:17:37;;;;;;;1999.90;999.90;;;13.80;99.90;;;;;;5066615;28;20032;-70
2023/09/05 00:20:07;;;;;;;1999.90;999.90;;;13.80;99.90;;;;;;5039032;28;20064;-70
2023/09/05 00:22:33;;;;;;;1999.90;999.90;;;13.80;99.90;;;;;;5047979;28;20147;-70
2023/09/05 00:24:58;;;;;;;1999.90;999.90;;;13.70;99.90;;;;;;5034557;28;20152;-70
2023/09/05 00:27:24;;;;;;;1999.90;999.90;;;13.70;99.90;;;;;;5045207;28;20047;-70
2023/09/05 00:29:50;;;;;;;1999.90;999.90;;;13.60;99.90;;;;;;5051362;28;20132;-70
2023/09/05 00:32:18;;;;;;;1999.90;999.90;;;13.60;99.90;;;;;;5046783;28;20029;-70
2023/09/05 00:34:44;;;;;;;1999.90;999.90;;;13.60;99.90;;;;;;5050899;28;20052;-70
2023/09/05 00:37:10;;;;;;;1999.90;999.90;;;13.60;99.90;;;;;;5044250;28;20149;-70
2023/09/05 00:39:40;;;;;;;1999.90;999.90;;;13.50;99.90;;;;;;5045140;28;20140;-71
2023/09/05 00:42:10;;;;;;;1999.90;999.90;;;13.50;99.90;;;;;;5045878;28;20094;-71
2023/09/05 00:44:36;;;;;;;1999.90;999.90;;;13.40;99.90;;;;;;5033194;28;20044;-70
2023/09/05 00:47:04;;;;;;;1999.90;999.90;;;13.40;99.90;;;;;;5060088;28;20079;-69
2023/09/05 00:49:38;;;;;;;1999.90;999.90;;;13.30;99.90;;;;;;5033689;28;20033;-69
2023/09/05 00:52:06;;;;;;;1999.90;999.90;;;13.30;99.90;;;;;;5062260;28;20052;-70
2023/09/05 00:54:32;;;;;;;1999.90;999.90;;;13.30;99.90;;;;;;5042924;28;20045;-70
2023/09/05 00:56:58;;;;;;;1999.90;999.90;;;13.20;99.90;;;;;;5062574;28;20052;-69
2023/09/05 00:59:24;;;;;;;1999.90;999.90;;;13.20;99.90;;;;;;5043679;28;20037;-70
2023/09/05 01:01:49;;;;;;;1999.90;999.90;;;13.20;99.90;;;;;;5034985;28;20051;-70
2023/09/05 01:04:16;;;;;;;1999.90;999.90;;;13.20;99.90;;;;;;5052146;28;20041;-69
2023/09/05 01:06:47;;;;;;;1999.90;999.90;;;13.10;99.90;;;;;;5057406;28;20065;-70
2023/09/05 01:09:36;;;;;;;1999.90;999.90;;;13.10;99.90;;;;;;5048532;28;20124;-70
2023/09/05 01:12:02;;;;;;;1999.90;999.90;;;13.10;99.90;;;;;;5046140;28;20080;-69
2023/09/05 01:14:28;;;;;;;1999.90;999.90;;;13.10;99.90;;;;;;5052303;28;20037;-70
2023/09/05 01:17:01;;;;;;;1999.90;999.90;;;13.10;99.90;;;;;;5042143;28;20033;-69
2023/09/05 01:19:29;;;;;;;1999.90;999.90;;;13.10;99.90;;;;;;5051199;28;20052;-69
2023/09/05 01:22:30;;;;;;;1999.90;999.90;;;13.10;99.90;;;;;;5025481;28;20069;-70
2023/09/05 01:24:56;;;;;;;1999.90;999.90;;;13.00;99.90;;;;;;5043517;28;20059;-69
2023/09/05 01:27:26;;;;;;;1999.90;999.90;;;13.10;99.90;;;;;;5059456;28;20041;-69
2023/09/05 01:29:52;;;;;;;1999.90;999.90;;;13.10;99.90;;;;;;5052897;28;20048;-70
2023/09/05 01:32:20;;;;;;;1999.90;999.90;;;13.10;99.90;;;;;;5049886;28;20453;-69
2023/09/05 01:34:47;;;;;;;1999.90;999.90;;;13.10;99.90;;;;;;5048184;28;20029;-69
2023/09/05 01:37:15;;;;;;;1999.90;999.90;;;13.10;99.90;;;;;;5064587;28;20501;-69
2023/09/05 01:39:41;;;;;;;1999.90;999.90;;;13.10;99.90;;;;;;5036377;28;20045;-70
2023/09/05 01:42:07;;;;;;;1999.90;999.90;;;13.10;99.90;;;;;;5048126;28;20119;-70
2023/09/05 01:44:36;;;;;;;1999.90;999.90;;;13.10;99.90;;;;;;5054496;28;20619;-70
2023/09/05 01:47:03;;;;;;;1999.90;999.90;;;13.10;99.90;;;;;;5053355;28;20095;-69
2023/09/05 01:49:29;;;;;;;1999.90;999.90;;;13.00;99.90;;;;;;5042003;28;20108;-70
2023/09/05 01:51:54;;;;;;;1999.90;999.90;;;13.00;99.90;;;;;;5047130;28;20060;-69
2023/09/05 01:54:20;;;;;;;1999.90;999.90;;;13.00;99.90;;;;;;5043244;28;20041;-70
2023/09/05 01:56:46;;;;;;;1999.90;999.90;;;13.00;99.90;;;;;;5039423;28;20040;-70
2023/09/05 01:59:12;;;;;;;1999.90;999.90;;;12.90;99.90;;;;;;5038454;28;20050;-70
2023/09/05 02:01:37;;;;;;;1999.90;999.90;;;12.90;99.90;;;;;;5039124;28;20120;-70
2023/09/05 02:04:03;;;;;;;1999.90;999.90;;;13.00;99.90;;;;;;5061219;28;20115;-71
2023/09/05 02:06:29;;;;;;;1999.90;999.90;;;13.00;99.90;;;;;;5058436;28;20053;-70
2023/09/05 02:08:54;;;;;;;1999.90;999.90;;;13.00;99.90;;;;;;5044098;28;20053;-70
2023/09/05 02:11:20;;;;;;;1999.90;999.90;;;13.00;99.90;;;;;;5037915;28;20041;-70
2023/09/05 02:13:46;;;;;;;1999.90;999.90;;;13.00;99.90;;;;;;5057003;28;20044;-70
2023/09/05 02:16:18;;;;;;;1999.90;999.90;;;13.00;99.90;;;;;;5031347;28;20098;-71
2023/09/05 02:18:47;;;;;;;1999.90;999.90;;;13.00;99.90;;;;;;5050977;28;20041;-70
2023/09/05 02:21:14;;;;;;;1999.90;999.90;;;13.00;99.90;;;;;;5046529;28;20060;-70
2023/09/05 02:23:39;;;;;;;1999.90;999.90;;;13.00;99.90;;;;;;5055541;28;20493;-70
2023/09/05 02:26:05;;;;;;;1999.90;999.90;;;13.00;99.90;;;;;;5059471;28;20125;-70
2023/09/05 02:28:31;;;;;;;1999.90;999.90;;;13.00;99.90;;;;;;5054776;28;20037;-70
2023/09/05 02:30:57;;;;;;;1999.90;999.90;;;12.90;99.90;;;;;;5055723;28;20195;-70
2023/09/05 02:33:23;;;;;;;1999.90;999.90;;;12.90;99.90;;;;;;5055174;28;20439;-70
2023/09/05 02:35:49;;;;;;;1999.90;999.90;;;12.90;99.90;;;;;;5053484;28;20061;-70
2023/09/05 02:38:15;;;;;;;1999.90;999.90;;;12.90;99.90;;;;;;5033156;28;20029;-70
2023/09/05 02:40:45;;;;;;;1999.90;999.90;;;12.90;99.90;;;;;;5066139;28;20044;-70
2023/09/05 02:43:11;;;;;;;1999.90;999.90;;;12.90;99.90;;;;;;5042598;28;20480;-70
2023/09/05 02:45:37;;;;;;;1999.90;999.90;;;12.90;99.90;;;;;;5056948;28;20123;-70
2023/09/05 02:48:03;;;;;;;1999.90;999.90;;;12.90;99.90;;;;;;5038110;28;20110;-70
2023/09/05 02:50:28;;;;;;;1999.90;999.90;;;12.80;99.90;;;;;;5048013;28;20508;-70
2023/09/05 02:52:54;;;;;;;1999.90;999.90;;;12.80;99.90;;;;;;5039554;28;20033;-70
2023/09/05 02:55:19;;;;;;;1999.90;999.90;;;12.80;99.90;;;;;;5047681;28;20251;-70
2023/09/05 02:57:45;;;;;;;1999.90;999.90;;;12.90;99.90;;;;;;5047964;28;20037;-70
2023/09/05 03:00:11;;;;;;;1999.90;999.90;;;12.80;99.90;;;;;;5041265;28;20485;-70
2023/09/05 03:02:40;;;;;;;1999.90;999.90;;;12.80;99.90;;;;;;5055613;28;20041;-70
2023/09/05 03:05:06;;;;;;;1999.90;999.90;;;12.80;99.90;;;;;;5042492;28;20085;-70
2023/09/05 03:07:32;;;;;;;1999.90;999.90;;;12.80;99.90;;;;;;5035334;28;20051;-71
2023/09/05 03:09:58;;;;;;;1999.90;999.90;;;12.80;99.90;;;;;;5063270;28;20036;-71
2023/09/05 03:12:23;;;;;;;1999.90;999.90;;;12.80;99.90;;;;;;5029714;28;20040;-71
2023/09/05 03:14:49;;;;;;;1999.90;999.90;;;12.80;99.90;;;;;;5058176;28;20047;-70
2023/09/05 03:17:15;;;;;;;1999.90;999.90;;;12.80;99.90;;;;;;5058887;28;20041;-70
2023/09/05 03:19:40;;;;;;;1999.90;999.90;;;12.90;99.90;;;;;;5057349;28;20374;-70
2023/09/05 03:22:07;;;;;;;1999.90;999.90;;;12.80;99.90;;;;;;5033576;28;20572;-70
2023/09/05 03:24:36;;;;;;;1999.90;999.90;;;12.80;99.90;;;;;;5058522;28;20048;-70
2023/09/05 03:27:02;;;;;;;1999.90;999.90;;;12.80;99.90;;;;;;5048488;28;20052;-70
2023/09/05 03:29:28;;;;;;;1999.90;999.90;;;12.80;99.90;;;;;;5053919;28;20041;-70
2023/09/05 03:31:54;;;;;;;1999.90;999.90;;;12.80;99.90;;;;;;5058556;28;20049;-70
2023/09/05 03:34:20;;;;;;;1999.90;999.90;;;12.80;99.90;;;;;;5052097;28;20393;-70
2023/09/05 03:36:45;;;;;;;1999.90;999.90;;;12.80;99.90;;;;;;5053355;28;20053;-71
2023/09/05 03:39:11;;;;;;;1999.90;999.90;;;12.80;99.90;;;;;;5053614;28;20051;-70
2023/09/05 03:41:37;;;;;;;1999.90;999.90;;;12.80;99.90;;;;;;5065773;28;20041;-70
2023/09/05 03:44:02;;;;;;;1999.90;999.90;;;12.80;99.90;;;;;;5043284;28;20036;-70
2023/09/05 03:46:28;;;;;;;1999.90;999.90;;;12.80;99.90;;;;;;5053477;28;20029;-70
2023/09/05 03:48:55;;;;;;;1999.90;999.90;;;12.80;99.90;;;;;;5039525;28;20042;-70
2023/09/05 03:51:21;;;;;;;1999.90;999.90;;;12.80;99.90;;;;;;5036238;28;20044;-70
2023/09/05 03:53:46;;;;;;;1999.90;999.90;;;12.80;99.90;;;;;;5049908;28;20067;-70
2023/09/05 03:56:12;;;;;;;1999.90;999.90;;;12.80;99.90;;;;;;5051939;28;20045;-70
2023/09/05 03:58:38;;;;;;;1999.90;999.90;;;12.80;99.90;;;;;;5027823;28;20171;-70
2023/09/05 04:01:04;;;;;;;1999.90;999.90;;;12.80;99.90;;;;;;5046050;28;20484;-70
2023/09/05 04:03:32;;;;;;;1999.90;999.90;;;12.80;99.90;;;;;;5043516;28;20037;-70
2023/09/05 04:06:01;;;;;;;1999.90;999.90;;;12.80;99.90;;;;;;5024924;28;20062;-71
2023/09/05 04:08:27;;;;;;;1999.90;999.90;;;12.80;99.90;;;;;;5040478;28;20199;-70
2023/09/05 04:11:00;;;;;;;1999.90;999.90;;;12.80;99.90;;;;;;5055061;28;20120;-71
2023/09/05 04:13:30;;;;;;;1999.90;999.90;;;12.80;99.90;;;;;;5067409;28;20044;-70
2023/09/05 04:16:00;;;;;;;1999.90;999.90;;;12.90;99.90;;;;;;5042654;28;20036;-70
2023/09/05 04:18:26;;;;;;;1999.90;999.90;;;12.80;99.90;;;;;;5053780;28;20056;-70
2023/09/05 04:20:58;;;;;;;1999.90;999.90;;;12.80;99.90;;;;;;5033988;28;20040;-70
2023/09/05 04:23:25;;;;;;;1999.90;999.90;;;12.80;99.90;;;;;;5040339;28;20040;-70
2023/09/05 04:26:01;;;;;;;1999.90;999.90;;;12.80;99.90;;;;;;5039521;28;20117;-70
2023/09/05 04:28:27;;;;;;;1999.90;999.90;;;12.80;99.90;;;;;;5043026;28;20060;-70
2023/09/05 04:30:55;;;;;;;1999.90;999.90;;;12.80;99.90;;;;;;5053414;28;20052;-70
2023/09/05 04:33:25;;;;;;;1999.90;999.90;;;12.80;99.90;;;;;;5050014;28;20049;-70
2023/09/05 04:35:51;;;;;;;1999.90;999.90;;;12.80;99.90;;;;;;5049903;28;20052;-71
2023/09/05 04:38:17;;;;;;;1999.90;999.90;;;12.70;99.90;;;;;;5065265;28;20032;-70
2023/09/05 04:40:43;;;;;;;1999.90;999.90;;;12.70;99.90;;;;;;5057215;28;20037;-70
2023/09/05 04:43:08;;;;;;;1999.90;999.90;;;12.70;99.90;;;;;;5050339;28;20051;-71
2023/09/05 04:45:34;;;;;;;1999.90;999.90;;;12.70;99.90;;;;;;5041346;28;20041;-70
2023/09/05 04:47:59;;;;;;;1999.90;999.90;;;12.70;99.90;;;;;;5036153;28;20079;-70
2023/09/05 04:50:25;;;;;;;1999.90;999.90;;;12.70;99.90;;;;;;5035119;28;20036;-70
2023/09/05 04:52:51;;;;;;;1999.90;999.90;;;12.60;99.90;;;;;;5049276;28;20041;-70
2023/09/05 04:55:16;;;;;;;1999.90;999.90;;;12.70;99.90;;;;;;5049039;28;20041;-70
2023/09/05 04:57:42;;;;;;;1999.90;999.90;;;12.60;99.90;;;;;;5037767;28;20041;-70
2023/09/05 05:00:10;;;;;;;1999.90;999.90;;;12.60;99.90;;;;;;5049396;28;20032;-70
2023/09/05 05:02:35;;;;;;;1999.90;999.90;;;12.60;99.90;;;;;;5039025;28;20036;-70
2023/09/05 05:05:01;;;;;;;1999.90;999.90;;;12.60;99.90;;;;;;5028190;28;20061;-70
2023/09/05 05:07:27;;;;;;;1999.90;999.90;;;12.60;99.90;;;;;;5045182;28;20045;-70
2023/09/05 05:09:52;;;;;;;1999.90;999.90;;;12.60;99.90;;;;;;5046816;28;20087;-70
2023/09/05 05:12:18;;;;;;;1999.90;999.90;;;12.50;99.90;;;;;;5048081;28;20149;-70
2023/09/05 05:14:44;;;;;;;1999.90;999.90;;;12.50;99.90;;;;;;5057413;28;20041;-70
2023/09/05 05:17:12;;;;;;;1999.90;999.90;;;12.50;99.90;;;;;;5027081;28;20056;-70
2023/09/05 05:19:38;;;;;;;1999.90;999.90;;;12.50;99.90;;;;;;5048413;28;20040;-70
2023/09/05 05:22:05;;;;;;;1999.90;999.90;;;12.50;99.90;;;;;;5054056;28;20420;-70
2023/09/05 05:24:31;;;;;;;1999.90;999.90;;;12.50;99.90;;;;;;5059711;28;20044;-69
2023/09/05 05:26:57;;;;;;;1999.90;999.90;;;12.50;99.90;;;;;;5035036;28;20037;-70
2023/09/05 05:29:23;;;;;;;1999.90;999.90;;;12.50;99.90;;;;;;5049618;28;20040;-70
2023/09/05 05:31:49;;;;;;;1999.90;999.90;;;12.50;99.90;;;;;;5053803;28;20045;-70
2023/09/05 05:34:15;;;;;;;1999.90;999.90;;;12.60;99.90;;;;;;5031723;28;20052;-70
2023/09/05 05:36:41;;;;;;;1999.90;999.90;;;12.60;99.90;;;;;;5049851;28;20044;-70
2023/09/05 05:39:06;;;;;;;1999.90;999.90;;;12.70;99.90;;;;;;5044730;28;20040;-70
2023/09/05 05:41:34;;;;;;;1999.90;999.90;;;12.70;99.90;;;;;;5048633;28;20044;-70
2023/09/05 05:44:00;;;;;;;1999.90;999.90;;;12.80;99.90;;;;;;5040690;28;20056;-70
2023/09/05 05:46:25;;;;;;;1999.90;999.90;;;12.90;99.90;;;;;;5042771;28;20839;-70
2023/09/05 05:48:51;;;;;;;1999.90;999.90;;;12.90;99.90;;;;;;5028196;28;20037;-70
2023/09/05 05:51:17;;;;;;;1999.90;999.90;;;13.00;99.90;;;;;;5028461;28;20072;-70
2023/09/05 05:53:44;;;;;;;1999.90;999.90;;;13.00;99.90;;;;;;5029052;28;20041;-70
2023/09/05 05:56:10;;;;;;;1999.90;999.90;;;13.10;99.90;;;;;;5025582;28;20037;-70
2023/09/05 05:58:36;;;;;;;1999.90;999.90;;;13.20;99.90;;;;;;5060446;28;20045;-70
2023/09/05 06:01:02;;;;;;;1999.90;999.90;;;13.30;99.90;;;;;;5042915;28;20092;-70
2023/09/05 06:03:28;;;;;;;1999.90;999.90;;;13.30;99.90;;;;;;5060273;28;20037;-70
2023/09/05 06:05:57;;;;;;;1999.90;999.90;;;13.40;99.90;;;;;;5054764;28;20060;-70
2023/09/05 06:08:22;;;;;;;1999.90;999.90;;;13.50;99.90;;;;;;5042450;28;20049;-70
2023/09/05 06:10:49;;;;;;;1999.90;999.90;;;13.60;99.90;;;;;;5063860;28;20053;-70
2023/09/05 06:13:15;;;;;;;1999.90;999.90;;;13.60;99.90;;;;;;5047422;28;20420;-70
2023/09/05 06:15:40;;;;;;;1999.90;999.90;;;13.70;99.90;;;;;;5035379;28;20040;-70
2023/09/05 06:18:08;;;;;;;1999.90;999.90;;;13.80;99.90;;;;;;5050664;28;20153;-70
2023/09/05 06:20:34;;;;;;;1999.90;999.90;;;13.90;99.90;;;;;;5051077;28;20409;-71
2023/09/05 06:23:02;;;;;;;1999.90;999.90;;;13.90;99.90;;;;;;5045355;28;20044;-70
2023/09/05 06:25:28;;;;;;;1999.90;999.90;;;14.00;99.90;;;;;;5052712;28;20128;-70
2023/09/05 06:27:54;;;;;;;1999.90;999.90;;;14.10;99.90;;;;;;5057546;28;20650;-70
2023/09/05 06:30:20;;;;;;;1999.90;999.90;;;14.20;99.90;;;;;;5048589;28;20045;-70
2023/09/05 06:32:45;;;;;;;1999.90;999.90;;;14.30;99.90;;;;;;5058939;28;20598;-70
2023/09/05 06:35:11;;;;;;;1999.90;999.90;;;14.40;99.90;;;;;;5054568;28;20032;-70
2023/09/05 06:37:38;;;;;;;1999.90;999.90;;;14.50;99.90;;;;;;5063417;28;20077;-70
2023/09/05 06:40:06;;;;;;;1999.90;999.90;;;14.60;99.90;;;;;;5045810;28;20041;-70
2023/09/05 06:42:32;;;;;;;1999.90;999.90;;;14.70;99.90;;;;;;5024654;28;20045;-70
2023/09/05 06:44:58;;;;;;;1999.90;999.90;;;14.80;99.90;;;;;;5047482;28;20036;-71
2023/09/05 06:47:24;;;;;;;1999.90;999.90;;;14.90;99.90;;;;;;5064364;28;20049;-70
2023/09/05 06:49:49;;;;;;;1999.90;999.90;;;15.00;99.90;;;;;;5047518;28;20041;-71
2023/09/05 06:52:15;;;;;;;1999.90;999.90;;;15.20;99.90;;;;;;5035486;28;20048;-70
2023/09/05 06:54:41;;;;;;;1999.90;999.90;;;15.30;99.90;;;;;;5063584;28;20055;-70
2023/09/05 06:57:08;;;;;;;1999.90;999.90;;;15.40;99.90;;;;;;5049086;28;20032;-70
2023/09/05 06:59:35;;;;;;;1999.90;999.90;;;15.60;99.90;;;;;;5046614;28;20438;-70
2023/09/05 07:02:02;;;;;;;1999.90;999.90;;;15.70;99.90;;;;;;5063855;28;20051;-71
2023/09/05 07:04:31;;;;;;;1999.90;999.90;;;16.00;99.90;;;;;;5040891;28;20134;-70
2023/09/05 07:07:01;;;;;;;1999.90;999.90;;;16.20;99.90;;;;;;5063368;28;20045;-71
2023/09/05 07:09:27;;;;;;;1999.90;999.90;;;16.30;99.90;;;;;;5039092;28;20044;-70
2023/09/05 07:11:53;;;;;;;1999.90;999.90;;;16.40;99.90;;;;;;5057946;28;21895;-71
2023/09/05 07:14:18;;;;;;;1999.90;999.90;;;16.60;99.90;;;;;;5037982;28;20528;-71
2023/09/05 07:16:44;;;;;;;1999.90;999.90;;;16.90;99.90;;;;;;5050946;28;20047;-71
2023/09/05 07:19:09;;;;;;;1999.90;999.90;;;17.10;99.90;;;;;;5048733;28;20036;-71
2023/09/05 07:21:37;;;;;;;1999.90;999.90;;;17.30;99.90;;;;;;5051100;28;20432;-71
2023/09/05 07:24:03;;;;;;;1999.90;999.90;;;17.70;99.90;;;;;;5053428;28;20519;-71
2023/09/05 07:26:29;;;;;;;1999.90;999.90;;;17.80;99.90;;;;;;5061058;28;20036;-71
2023/09/05 07:28:54;;;;;;;1999.90;999.90;;;17.80;99.90;;;;;;5063162;28;20044;-71
2023/09/05 07:31:22;;;;;;;1999.90;999.90;;;17.80;99.90;;;;;;5057882;28;20043;-71
2023/09/05 07:33:47;;;;;;;1999.90;999.90;;;17.80;99.90;;;;;;5066853;28;20056;-71
2023/09/05 07:36:13;;;;;;;1999.90;999.90;;;17.80;99.90;;;;;;5051528;28;20044;-71
2023/09/05 07:38:38;;;;;;;1999.90;999.90;;;17.80;99.90;;;;;;5049436;28;20510;-71
2023/09/05 07:41:05;;;;;;;1999.90;999.90;;;17.90;99.90;;;;;;5060346;28;20692;-70
2023/09/05 07:43:34;;;;;;;1999.90;999.90;;;17.90;99.90;;;;;;5051214;28;20040;-71
2023/09/05 07:46:00;;;;;;;1999.90;999.90;;;18.00;99.90;;;;;;5037811;28;20130;-71
2023/09/05 07:48:26;;;;;;;1999.90;999.90;;;18.10;99.90;;;;;;5026384;28;20048;-71
2023/09/05 07:51:00;;;;;;;1999.90;999.90;;;18.20;99.90;;;;;;5026352;28;20060;-71
2023/09/05 07:53:25;;;;;;;1999.90;999.90;;;18.40;99.90;;;;;;5040673;28;20134;-71
2023/09/05 07:55:51;;;;;;;1999.90;999.90;;;18.50;99.90;;;;;;5052481;28;20953;-71
2023/09/05 07:58:17;;;;;;;1999.90;999.90;;;18.60;99.90;;;;;;5054701;28;20842;-71
2023/09/05 08:00:43;;;;;;;1999.90;999.90;;;18.70;99.90;;;;;;5043457;28;20044;-71
2023/09/05 08:03:09;;;;;;;1999.90;999.90;;;18.70;99.90;;;;;;5052453;28;20406;-71
2023/09/05 08:05:34;;;;;;;1999.90;999.90;;;18.80;99.90;;;;;;5062361;28;20059;-71
2023/09/05 08:08:00;;;;;;;1999.90;999.90;;;18.90;99.90;;;;;;5047578;28;20037;-71
2023/09/05 08:10:26;;;;;;;1999.90;999.90;;;19.00;99.90;;;;;;5040968;28;20091;-71
2023/09/05 08:12:51;;;;;;;1999.90;999.90;;;19.10;99.90;;;;;;5048086;28;20037;-71
2023/09/05 08:15:17;;;;;;;1999.90;999.90;;;19.20;99.90;;;;;;5029359;28;20130;-71
2023/09/05 08:17:43;;;;;;;1999.90;999.90;;;19.30;99.90;;;;;;5027603;28;20036;-71
2023/09/05 08:20:12;;;;;;;1999.90;999.90;;;19.40;99.90;;;;;;5050775;28;20431;-71
2023/09/05 08:22:38;;;;;;;1999.90;999.90;;;19.50;99.90;;;;;;5049836;28;20578;-71
2023/09/05 08:25:04;;;;;;;1999.90;999.90;;;19.70;99.90;;;;;;5047889;28;20127;-71
2023/09/05 08:27:30;;;;;;;1999.90;999.90;;;20.00;99.90;;;;;;5049387;28;20044;-71
2023/09/05 08:29:59;;;;;;;679.40;421.83;;;20.20;99.90;;;;;;5041657;28;20789;-71
2023/09/05 08:32:25;;;;;;;1999.90;999.90;;;20.30;99.90;;;;;;5045006;28;20045;-71
2023/09/05 08:34:50;;;;;;;299.20;286.20;;;20.40;99.90;;;;;;5042255;28;20120;-71
2023/09/05 08:37:16;;;;;;;1999.90;999.90;;;20.50;99.90;;;;;;5046561;28;20536;-71
2023/09/05 08:39:42;;;;;;;1999.90;999.90;;;20.50;99.90;;;;;;5047663;28;20825;-71
2023/09/05 08:42:08;;;;;;;412.45;392.13;;;20.70;99.90;;;;;;5051414;28;20037;-71
2023/09/05 08:44:42;;;;;;;385.17;366.60;;;20.80;99.90;;;;;;5053397;28;20052;-71
2023/09/05 08:47:08;;;;;;;333.80;318.38;;;20.90;99.90;;;;;;5066810;28;20037;-71
2023/09/05 08:49:34;;;;;;;250.20;239.15;;;21.10;99.90;;;;;;5037158;28;20085;-71
2023/09/05 08:52:05;;;;;;;335.35;319.30;;;21.40;99.90;;;;;;5032379;28;20086;-71
2023/09/05 08:54:31;;;;;;;1256.53;742.30;;;22.20;99.90;;;;;;5052732;28;20037;-71
2023/09/05 08:56:58;;;;;;;334.65;319.02;;;23.20;99.90;;;;;;5068024;28;20094;-71
2023/09/05 08:59:29;;;;;;;626.53;589.05;;;24.00;99.90;;;;;;5046320;28;20435;-71
2023/09/05 09:01:54;;;;;;;296.15;283.05;;;24.80;99.90;;;;;;5054646;28;20130;-71
2023/09/05 09:04:21;;;;;;;360.15;343.48;;;25.40;99.90;;;;;;5058640;28;20093;-71
2023/09/05 09:06:54;;;;;;;431.90;410.42;;;25.80;99.90;;;;;;5055754;28;20060;-71
2023/09/05 09:09:39;;;;;;;485.65;460.50;;;26.20;99.90;;;;;;5051322;28;20053;-71
2023/09/05 09:12:05;;;;;;;497.45;471.58;;;26.60;99.90;;;;;;5047903;28;20033;-71
2023/09/05 09:14:31;;;;;;;507.40;480.60;;;26.90;99.90;;;;;;5050378;28;20029;-72
2023/09/05 09:17:01;;;;;;;605.08;570.65;;;27.30;99.90;;;;;;5046393;28;20578;-71
2023/09/05 09:19:29;;;;;;;613.85;577.88;;;27.50;99.90;;;;;;5044967;28;20033;-71
2023/09/05 09:22:00;;;;;;;570.45;538.72;;;27.70;99.90;;;;;;5063854;28;20056;-71
2023/09/05 09:24:34;;;;;;;576.13;543.20;;;27.90;99.90;;;;;;5047227;28;20568;-72
2023/09/05 09:27:02;;;;;;;503.92;477.38;;;28.00;99.90;;;;;;5051543;28;20045;-71
2023/09/05 09:29:28;;;;;;;303.52;289.83;;;28.10;99.90;;;;;;5041749;28;20048;-71
2023/09/05 09:32:05;;;;;;;370.80;352.92;;;28.10;99.90;;;;;;5052368;28;20033;-71
2023/09/05 09:34:32;;;;;;;285.63;272.98;;;28.00;99.90;;;;;;5054262;28;20041;-72
2023/09/05 09:36:58;;;;;;;403.73;383.48;;;27.90;99.90;;;;;;5049449;28;20072;-71
2023/09/05 09:39:25;;;;;;;369.30;351.55;;;27.90;99.90;;;;;;5051108;28;20068;-71
2023/09/05 09:41:51;;;;;;;257.63;246.25;;;27.90;99.90;;;;;;5055012;28;20128;-72
2023/09/05 09:44:28;;;;;;;201.10;192.27;;;27.90;99.90;;;;;;5049183;28;20120;-71
2023/09/05 09:46:54;;;;;;;214.23;204.65;;;28.00;99.90;;;;;;5067984;28;20086;-71
2023/09/05 09:49:22;;;;;;;169.57;161.93;;;27.90;99.90;;;;;;5039389;28;20048;-71
2023/09/05 09:51:54;;;;;;;108.47;103.82;;;28.00;99.90;;;;;;5061527;28;20668;-71
2023/09/05 09:54:26;;;;;;;164.48;157.43;;;27.80;99.90;;;;;;5053592;28;20058;-72
2023/09/05 09:56:53;;;;;;;147.38;141.02;;;27.60;99.90;;;;;;5047499;28;20141;-71
2023/09/05 09:59:26;;;;;;;194.45;185.90;;;27.60;99.90;;;;;;5060969;28;20119;-72
2023/09/05 10:01:54;;;;;;;149.95;143.48;;;27.60;99.90;;;;;;5067951;28;20037;-71
2023/09/05 10:04:22;;;;;;;173.70;166.20;;;27.70;99.90;;;;;;5060369;28;20047;-72
2023/09/05 10:06:49;;;;;;;322.38;307.27;;;27.80;99.90;;;;;;5064750;28;20074;-72
2023/09/05 10:09:17;;;;;;;177.10;169.45;;;27.90;99.90;;;;;;5039247;28;20123;-72
2023/09/05 10:11:44;;;;;;;181.63;173.82;;;28.00;99.90;;;;;;5051113;28;20139;-71
2023/09/05 10:14:11;;;;;;;189.55;181.48;;;28.20;99.90;;;;;;5050215;28;20049;-72
2023/09/05 10:16:39;;;;;;;187.18;179.32;;;28.30;99.90;;;;;;5049146;28;20045;-72
2023/09/05 10:19:07;;;;;;;217.05;207.80;;;28.40;99.90;;;;;;5047843;28;20049;-72
2023/09/05 10:21:34;;;;;;;180.18;172.52;;;28.40;99.90;;;;;;5056215;28;20052;-72
2023/09/05 10:24:00;;;;;;;231.73;221.68;;;28.50;99.90;;;;;;5032322;28;20060;-71
2023/09/05 10:26:27;;;;;;;256.33;245.07;;;28.50;99.90;;;;;;5059550;28;20045;-71
2023/09/05 10:28:56;;;;;;;180.18;172.18;;;28.60;99.90;;;;;;5055226;28;20055;-71
2023/09/05 10:31:24;;;;;;;197.80;189.40;;;28.70;99.90;;;;;;5052733;28;20049;-72
2023/09/05 10:33:50;;;;;;;181.88;174.07;;;28.90;99.90;;;;;;5062418;28;20045;-71
2023/09/05 10:36:42;;;;;;;191.90;183.70;;;28.90;99.90;;;;;;5062860;28;20041;-71
2023/09/05 10:39:25;;;;;;;173.82;166.40;;;29.00;99.90;;;;;;5049994;28;20045;-71
2023/09/05 10:41:51;;;;;;;209.75;200.85;;;29.20;99.90;;;;;;5045349;28;20045;-71
2023/09/05 10:44:17;;;;;;;185.10;177.20;;;29.30;99.90;;;;;;5064530;28;20163;-71
2023/09/05 10:46:42;;;;;;;216.55;207.25;;;29.30;99.90;;;;;;5059315;28;20398;-71
2023/09/05 10:49:11;;;;;;;190.60;182.38;;;29.40;99.90;;;;;;5057680;28;20551;-71
2023/09/05 10:52:16;;;;;;;183.50;175.73;;;29.50;99.90;;;;;;5048920;28;20045;-71
2023/09/05 10:54:41;;;;;;;193.68;185.18;;;29.60;99.90;;;;;;5042188;28;20094;-71
2023/09/05 10:57:39;;;;;;;217.95;208.55;;;29.70;99.90;;;;;;5054503;28;20044;-71
2023/09/05 11:00:17;;;;;;;190.07;181.85;;;29.90;98.60;;;;;;5063912;28;20432;-71
2023/09/05 11:02:47;;;;;;;216.73;207.50;;;29.80;99.80;;;;;;5029560;28;20401;-71
2023/09/05 11:05:18;;;;;;;183.90;176.02;;;29.90;99.90;;;;;;5030316;28;20048;-71
2023/09/05 11:07:50;;;;;;;193.13;184.88;;;30.00;99.90;;;;;;5056333;28;20045;-71
2023/09/05 11:10:34;;;;;;;176.27;168.77;;;30.10;99.40;;;;;;5038852;28;20154;-71
2023/09/05 11:13:14;;;;;;;162.80;155.77;;;30.30;99.90;;;;;;5039211;28;20049;-71
2023/09/05 11:15:43;;;;;;;141.63;135.43;;;30.30;98.80;;;;;;5017628;28;20033;-71
2023/09/05 11:18:17;;;;;;;160.95;154.00;;;30.40;99.60;;;;;;5030805;28;20040;-71
2023/09/05 11:20:45;;;;;;;149.70;143.35;;;30.50;98.00;;;;;;5031350;28;20047;-72
2023/09/05 11:23:28;;;;;;;112.90;108.03;;;30.70;98.10;;;;;;5034558;28;20056;-72
2023/09/05 11:25:56;;;;;;;146.25;139.88;;;30.70;96.90;;;;;;5045332;28;20076;-71
2023/09/05 11:28:24;;;;;;;177.75;170.15;;;30.70;97.30;;;;;;5046205;28;20045;-71
2023/09/05 11:30:52;;;;;;;152.73;146.13;;;30.80;98.00;;;;;;5059926;28;20040;-71
2023/09/05 11:33:19;;;;;;;169.52;162.32;;;30.90;97.20;;;;;;5041979;28;20102;-71
2023/09/05 11:35:46;;;;;;;163.45;156.45;;;31.00;97.30;;;;;;5037760;28;20087;-71
2023/09/05 11:38:13;;;;;;;151.57;145.07;;;31.20;97.60;;;;;;5048219;28;20708;-71
2023/09/05 11:40:40;;;;;;;164.15;156.95;;;31.30;96.60;;;;;;5050080;28;20032;-71
2023/09/05 11:43:10;;;;;;;131.68;125.95;;;31.40;97.00;;;;;;5045895;28;20052;-71
2023/09/05 11:45:37;;;;;;;140.40;134.25;;;31.60;95.90;;;;;;5050245;28;20040;-71
2023/09/05 11:48:11;;;;;;;156.43;149.73;;;31.50;94.90;;;;;;5046523;28;20576;-71
2023/09/05 11:50:38;;;;;;;130.35;124.65;;;31.40;96.20;;;;;;5047826;28;20369;-71
2023/09/05 11:53:10;;;;;;;137.88;131.90;;;31.50;96.40;;;;;;5049615;28;20557;-71
2023/09/05 11:55:36;;;;;;;118.97;113.82;;;31.60;95.40;;;;;;5033873;28;20037;-71
2023/09/05 11:58:02;;;;;;;118.03;112.82;;;31.60;95.70;;;;;;5046759;28;20095;-71
2023/09/05 12:00:28;;;;;;;117.85;112.75;;;31.60;95.40;;;;;;5045538;28;20488;-71
2023/09/05 12:02:56;;;;;;;119.90;114.72;;;31.60;94.60;;;;;;5048560;28;20040;-71